createdAt,value
2022-09-10T00:02:01.833Z,64.03
2022-09-10T00:04:29.165Z,64.19
2022-09-10T00:06:56.842Z,64.32
2022-09-10T00:09:24.010Z,63.95
2022-09-10T00:11:51.000Z,64.17
2022-09-10T00:14:23.394Z,64.10
2022-09-10T00:16:50.779Z,64.26
2022-09-10T00:19:19.685Z,64.10
2022-09-10T00:21:46.773Z,64.01
2022-09-10T00:24:14.233Z,64.10
2022-09-10T00:26:41.951Z,64.07
2022-09-10T00:29:12.066Z,64.03
2022-09-10T00:31:40.183Z,63.91
2022-09-10T00:34:09.249Z,63.84
2022-09-10T00:36:42.195Z,63.99
2022-09-10T00:39:15.191Z,64.33
2022-09-10T00:41:44.927Z,64.14
2022-09-10T00:44:40.057Z,64.31
2022-09-10T00:47:34.260Z,63.98
2022-09-10T00:50:07.211Z,63.80
2022-09-10T00:52:39.392Z,63.75
2022-09-10T00:55:08.853Z,63.95
2022-09-10T00:57:36.284Z,63.97
2022-09-10T01:00:09.877Z,64.10
2022-09-10T01:02:37.028Z,64.15
2022-09-10T01:05:04.913Z,64.20
2022-09-10T01:07:33.187Z,64.09
2022-09-10T01:10:05.237Z,63.90
2022-09-10T01:12:54.227Z,63.89
2022-09-10T01:15:51.125Z,64.40
2022-09-10T01:18:49.675Z,64.11
2022-09-10T01:21:28.753Z,63.89
2022-09-10T01:24:18.662Z,63.96
2022-09-10T01:27:06.299Z,63.93
2022-09-10T01:29:57.677Z,64.18
2022-09-10T01:32:49.195Z,64.17
2022-09-10T01:35:25.468Z,64.12
2022-09-10T01:37:59.897Z,64.23
2022-09-10T01:40:30.448Z,64.25
2022-09-10T01:43:07.936Z,64.39
2022-09-10T01:46:01.152Z,64.79
2022-09-10T01:48:43.239Z,64.40
2022-09-10T01:51:36.975Z,64.30
2022-09-10T01:54:30.973Z,64.17
2022-09-10T01:57:24.774Z,64.27
2022-09-10T01:59:54.816Z,64.75
2022-09-10T02:02:28.946Z,64.31
2022-09-10T02:04:58.205Z,64.54
2022-09-10T02:07:26.824Z,64.74
2022-09-10T02:09:55.786Z,65.46
2022-09-10T02:12:24.768Z,64.97
2022-09-10T02:15:12.775Z,64.68
2022-09-10T02:17:56.120Z,64.59
2022-09-10T02:20:23.448Z,64.82
2022-09-10T02:22:58.816Z,64.56
2022-09-10T02:25:33.465Z,64.72
2022-09-10T02:28:03.431Z,64.45
2022-09-10T02:30:30.764Z,64.63
2022-09-10T02:32:58.033Z,64.85
2022-09-10T02:35:25.746Z,64.85
2022-09-10T02:37:53.531Z,64.85
2022-09-10T02:40:20.645Z,64.96
2022-09-10T02:42:47.832Z,64.83
2022-09-10T02:45:19.414Z,65.28
2022-09-10T02:47:46.438Z,64.64
2022-09-10T02:50:16.031Z,65.19
2022-09-10T02:52:46.184Z,65.22
2022-09-10T02:55:14.075Z,65.06
2022-09-10T02:57:42.532Z,65.10
2022-09-10T03:00:11.169Z,65.38
2022-09-10T03:02:38.232Z,65.16
2022-09-10T03:05:18.341Z,64.86
2022-09-10T03:07:51.678Z,64.92
2022-09-10T03:10:18.754Z,65.11
2022-09-10T03:12:45.906Z,65.14
2022-09-10T03:15:12.950Z,64.96
2022-09-10T03:17:39.949Z,64.90
2022-09-10T03:20:07.897Z,65.30
2022-09-10T03:22:35.778Z,65.06
2022-09-10T03:25:02.925Z,65.24
2022-09-10T03:27:30.859Z,65.61
2022-09-10T03:29:57.992Z,65.49
2022-09-10T03:32:25.100Z,65.53
2022-09-10T03:34:53.162Z,65.40
2022-09-10T03:37:20.209Z,65.15
2022-09-10T03:39:47.326Z,65.25
2022-09-10T03:42:16.634Z,65.77
2022-09-10T03:44:43.942Z,65.39
2022-09-10T03:47:12.361Z,65.46
2022-09-10T03:49:40.065Z,65.54
2022-09-10T03:52:08.004Z,65.51
2022-09-10T03:54:37.368Z,65.96
2022-09-10T03:57:04.902Z,65.59
2022-09-10T03:59:32.722Z,65.75
2022-09-10T04:02:03.044Z,66.07
2022-09-10T04:04:32.006Z,65.93
2022-09-10T04:06:59.133Z,65.90
2022-09-10T04:09:26.064Z,66.21
2022-09-10T04:11:53.096Z,66.10
2022-09-10T04:14:22.599Z,66.24
2022-09-10T04:16:49.850Z,65.56
2022-09-10T04:19:18.471Z,65.84
2022-09-10T04:21:48.591Z,65.78
2022-09-10T04:24:15.632Z,65.73
2022-09-10T04:26:42.669Z,66.05
2022-09-10T04:29:13.330Z,66.08
2022-09-10T04:31:41.377Z,66.54
2022-09-10T04:34:13.145Z,66.32
2022-09-10T04:36:40.504Z,66.44
2022-09-10T04:39:09.021Z,66.21
2022-09-10T04:41:37.082Z,66.32
2022-09-10T04:44:06.491Z,66.25
2022-09-10T04:46:35.137Z,66.16
2022-09-10T04:49:03.625Z,66.11
2022-09-10T04:51:33.572Z,65.85
2022-09-10T04:54:01.928Z,66.05
2022-09-10T04:56:36.765Z,66.69
2022-09-10T04:59:05.060Z,66.56
2022-09-10T05:01:35.739Z,66.70
2022-09-10T05:04:04.546Z,65.09
2022-09-10T05:06:33.105Z,64.43
2022-09-10T05:09:00.113Z,65.11
2022-09-10T05:11:27.565Z,64.65
2022-09-10T05:13:54.713Z,64.84
2022-09-10T05:16:25.781Z,64.36
2022-09-10T05:18:53.410Z,63.63
2022-09-10T05:21:20.931Z,63.50
2022-09-10T05:23:48.122Z,63.09
2022-09-10T05:26:15.404Z,62.65
2022-09-10T05:28:42.852Z,62.44
2022-09-10T05:31:13.769Z,61.82
2022-09-10T05:33:43.468Z,61.26
2022-09-10T05:36:13.056Z,60.28
2022-09-10T05:38:41.428Z,60.13
2022-09-10T05:41:12.157Z,59.27
2022-09-10T05:43:43.753Z,58.62
2022-09-10T05:46:11.705Z,57.74
2022-09-10T05:48:41.886Z,57.01
2022-09-10T05:51:10.896Z,58.21
2022-09-10T05:53:39.005Z,56.70
2022-09-10T05:56:07.472Z,56.64
2022-09-10T05:58:36.197Z,55.78
2022-09-10T06:01:03.789Z,56.05
2022-09-10T06:03:32.181Z,55.61
2022-09-10T06:06:01.817Z,54.92
2022-09-10T06:08:33.273Z,53.46
2022-09-10T06:11:07.063Z,51.20
2022-09-10T06:13:42.356Z,50.59
2022-09-10T06:16:09.981Z,48.94
2022-09-10T06:18:37.659Z,46.70
2022-09-10T06:21:15.699Z,47.82
2022-09-10T06:23:44.999Z,45.63
2022-09-10T06:26:20.150Z,46.24
2022-09-10T06:28:53.077Z,46.24
2022-09-10T06:31:20.290Z,45.77
2022-09-10T06:33:50.212Z,45.35
2022-09-10T06:36:20.600Z,44.86
2022-09-10T06:38:49.756Z,45.15
2022-09-10T06:41:17.376Z,44.90
2022-09-10T06:43:52.699Z,43.94
2022-09-10T06:49:29.778Z,43.07
2022-09-10T06:51:57.954Z,41.41
2022-09-10T06:54:26.579Z,40.25
2022-09-10T06:56:58.177Z,39.47
2022-09-10T06:59:25.746Z,39.57
2022-09-10T07:01:52.991Z,38.08
2022-09-10T07:04:21.554Z,37.84
2022-09-10T07:06:49.297Z,37.82
2022-09-10T07:09:17.495Z,36.81
2022-09-10T07:12:05.073Z,35.97
2022-09-10T07:14:35.889Z,35.76
2022-09-10T07:17:06.708Z,36.11
2022-09-10T07:19:36.465Z,36.51
2022-09-10T07:22:07.163Z,37.09
2022-09-10T07:24:34.781Z,39.49
2022-09-10T07:27:06.844Z,38.79
2022-09-10T07:29:35.820Z,39.51
2022-09-10T07:32:04.586Z,38.79
2022-09-10T07:34:32.418Z,37.76
2022-09-10T07:37:02.048Z,37.63
2022-09-10T07:39:30.569Z,37.09
2022-09-10T07:42:00.426Z,38.24
2022-09-10T07:44:30.107Z,36.86
2022-09-10T07:47:03.548Z,37.92
2022-09-10T07:49:32.795Z,38.32
2022-09-10T07:52:00.384Z,37.59
2022-09-10T07:54:33.265Z,37.88
2022-09-10T07:57:01.145Z,37.77
2022-09-10T07:59:28.429Z,38.82
2022-09-10T08:02:02.076Z,37.64
2022-09-10T08:04:36.815Z,37.82
2022-09-10T08:07:07.435Z,37.94
2022-09-10T08:09:37.589Z,38.07
2022-09-10T08:12:07.848Z,37.04
2022-09-10T08:14:36.697Z,37.71
2022-09-10T08:17:04.740Z,37.23
2022-09-10T08:19:36.784Z,38.31
2022-09-10T08:22:04.390Z,37.63
2022-09-10T08:24:38.216Z,37.27
2022-09-10T08:27:05.667Z,37.61
2022-09-10T08:29:32.743Z,37.43
2022-09-10T08:32:00.709Z,37.70
2022-09-10T08:34:31.240Z,37.48
2022-09-10T08:37:09.464Z,37.31
2022-09-10T08:39:38.589Z,36.59
2022-09-10T08:42:09.484Z,37.84
2022-09-10T08:45:00.174Z,37.17
2022-09-10T08:47:56.701Z,36.35
2022-09-10T08:50:23.820Z,36.77
2022-09-10T08:53:23.180Z,36.88
2022-09-10T08:55:51.327Z,36.14
2022-09-10T08:58:28.682Z,36.06
2022-09-10T09:01:01.663Z,36.22
2022-09-10T09:03:42.971Z,34.36
2022-09-10T09:06:29.765Z,35.12
2022-09-10T09:09:01.018Z,34.98
2022-09-10T09:11:50.389Z,35.44
2022-09-10T09:14:45.317Z,33.41
2022-09-10T09:17:43.415Z,33.62
2022-09-10T09:20:34.676Z,33.11
2022-09-10T09:23:15.074Z,29.68
2022-09-10T09:25:54.228Z,30.92
2022-09-10T09:28:37.853Z,30.83
2022-09-10T09:31:14.255Z,31.31
2022-09-10T09:33:42.235Z,31.88
2022-09-10T09:36:17.228Z,31.93
2022-09-10T09:38:51.638Z,32.64
2022-09-10T09:41:53.715Z,33.21
2022-09-10T09:44:21.309Z,32.85
2022-09-10T09:46:49.897Z,33.69
2022-09-10T09:49:17.676Z,32.98
2022-09-10T09:51:48.159Z,33.88
2022-09-10T09:57:19.764Z,33.94
2022-09-10T09:59:49.552Z,33.71
2022-09-10T10:02:23.644Z,33.38
2022-09-10T10:05:26.401Z,32.90
2022-09-10T10:07:53.587Z,34.35
2022-09-10T10:10:25.705Z,34.63
2022-09-10T10:12:54.926Z,35.44
2022-09-10T10:15:54.324Z,33.47
2022-09-10T10:18:27.624Z,33.38
2022-09-10T10:21:12.905Z,32.98
2022-09-10T10:23:40.089Z,33.47
2022-09-10T10:26:25.929Z,32.78
2022-09-10T10:29:07.099Z,33.36
2022-09-10T10:31:41.660Z,33.40
2022-09-10T10:34:17.176Z,33.02
2022-09-10T10:37:05.044Z,34.04
2022-09-10T10:39:45.459Z,34.27
2022-09-10T10:42:21.626Z,34.57
2022-09-10T10:45:19.223Z,33.69
2022-09-10T10:48:01.073Z,32.77
2022-09-10T10:50:37.672Z,32.83
2022-09-10T10:53:36.203Z,33.06
2022-09-10T10:56:13.124Z,33.54
2022-09-10T10:59:13.804Z,33.81
2022-09-10T11:01:48.752Z,33.45
2022-09-10T11:04:31.834Z,33.42
2022-09-10T11:07:13.193Z,33.99
2022-09-10T11:10:01.679Z,33.76
2022-09-10T11:12:35.096Z,34.35
2022-09-10T11:15:07.417Z,34.18
2022-09-10T11:17:54.216Z,34.21
2022-09-10T11:20:29.642Z,33.37
2022-09-10T11:23:18.626Z,32.80
2022-09-10T11:26:16.066Z,33.42
2022-09-10T11:28:54.527Z,32.91
2022-09-10T11:31:50.983Z,31.95
2022-09-10T11:34:33.078Z,32.07
2022-09-10T11:37:40.312Z,32.45
2022-09-10T11:40:18.690Z,31.81
2022-09-10T11:42:52.732Z,32.49
2022-09-10T11:45:38.461Z,32.49
2022-09-10T11:48:23.533Z,32.07
2022-09-10T11:51:10.915Z,33.01
2022-09-10T11:53:37.913Z,31.96
2022-09-10T11:56:23.298Z,32.07
2022-09-10T11:59:08.688Z,31.01
2022-09-10T12:02:02.917Z,31.40
2022-09-10T12:04:50.914Z,31.54
2022-09-10T12:07:24.218Z,30.82
2022-09-10T12:10:31.690Z,31.21
2022-09-10T12:12:59.533Z,31.58
2022-09-10T12:15:34.508Z,31.28
2022-09-10T12:18:07.677Z,31.76
2022-09-10T12:20:52.841Z,31.12
2022-09-10T12:23:49.769Z,31.06
2022-09-10T12:26:20.698Z,31.38
2022-09-10T12:28:53.781Z,31.62
2022-09-10T12:31:22.129Z,31.27
2022-09-10T12:33:51.367Z,30.86
2022-09-10T12:36:27.525Z,31.48
2022-09-10T12:39:20.296Z,31.62
2022-09-10T12:41:47.430Z,29.87
2022-09-10T12:44:44.333Z,30.17
2022-09-10T12:47:17.255Z,30.60
2022-09-10T12:50:09.227Z,31.56
2022-09-10T12:53:16.547Z,31.71
2022-09-10T12:56:02.335Z,31.46
2022-09-10T12:58:38.284Z,31.16
2022-09-10T13:01:18.527Z,31.70
2022-09-10T13:03:59.755Z,31.74
2022-09-10T13:06:40.277Z,32.09
2022-09-10T13:09:28.569Z,31.49
2022-09-10T13:12:00.515Z,30.76
2022-09-10T13:14:38.275Z,30.88
2022-09-10T13:17:06.251Z,30.65
2022-09-10T13:19:35.166Z,31.01
2022-09-10T13:22:03.380Z,30.46
2022-09-10T13:24:34.504Z,31.37
2022-09-10T13:27:24.676Z,31.70
2022-09-10T13:30:31.502Z,32.16
2022-09-10T13:33:07.683Z,30.57
2022-09-10T13:35:49.655Z,31.73
2022-09-10T13:38:44.820Z,31.74
2022-09-10T13:41:32.495Z,31.33
2022-09-10T13:44:10.764Z,31.20
2022-09-10T13:46:46.658Z,31.26
2022-09-10T13:49:29.341Z,31.14
2022-09-10T13:51:59.536Z,32.32
2022-09-10T13:54:38.652Z,31.55
2022-09-10T13:57:30.178Z,32.64
2022-09-10T14:00:17.869Z,32.66
2022-09-10T14:03:12.829Z,33.30
2022-09-10T14:05:57.534Z,33.63
2022-09-10T14:08:39.435Z,33.66
2022-09-10T14:11:07.451Z,33.47
2022-09-10T14:13:43.258Z,34.36
2022-09-10T14:16:18.026Z,34.74
2022-09-10T14:18:51.732Z,34.67
2022-09-10T14:21:26.954Z,34.74
2022-09-10T14:23:56.617Z,34.74
2022-09-10T14:26:27.066Z,34.85
2022-09-10T14:28:56.592Z,35.12
2022-09-10T14:31:30.221Z,34.57
2022-09-10T14:33:59.321Z,36.00
2022-09-10T14:36:29.609Z,36.08
2022-09-10T14:39:14.339Z,36.83
2022-09-10T14:41:41.955Z,36.43
2022-09-10T14:44:24.125Z,37.17
2022-09-10T14:47:10.902Z,38.35
2022-09-10T14:49:41.513Z,38.15
2022-09-10T14:52:10.949Z,38.99
2022-09-10T14:54:38.545Z,38.59
2022-09-10T14:57:10.121Z,37.67
2022-09-10T14:59:39.040Z,37.84
2022-09-10T15:02:17.334Z,38.04
2022-09-10T15:04:44.466Z,38.19
2022-09-10T15:07:12.124Z,39.96
2022-09-10T15:09:40.807Z,38.65
2022-09-10T15:12:13.293Z,38.74
2022-09-10T15:14:40.858Z,39.70
2022-09-10T15:17:09.759Z,39.73
2022-09-10T15:19:36.822Z,40.84
2022-09-10T15:22:04.229Z,41.10
2022-09-10T15:24:52.546Z,40.75
2022-09-10T15:27:21.926Z,40.03
2022-09-10T15:29:49.396Z,40.30
2022-09-10T15:32:18.424Z,41.03
2022-09-10T15:34:45.516Z,41.33
2022-09-10T15:37:12.727Z,40.48
2022-09-10T15:39:40.201Z,40.64
2022-09-10T15:42:07.627Z,40.90
2022-09-10T15:44:34.982Z,40.87
2022-09-10T15:47:02.981Z,41.13
2022-09-10T15:49:30.016Z,41.06
2022-09-10T15:51:57.490Z,41.03
2022-09-10T15:54:24.681Z,42.93
2022-09-10T15:56:52.400Z,42.66
2022-09-10T15:59:19.494Z,42.70
2022-09-10T16:01:46.868Z,42.94
2022-09-10T16:04:15.579Z,43.08
2022-09-10T16:06:43.399Z,43.38
2022-09-10T16:09:13.711Z,43.66
2022-09-10T16:11:42.589Z,44.03
2022-09-10T16:14:13.872Z,43.25
2022-09-10T16:16:41.481Z,44.21
2022-09-10T16:19:09.487Z,44.43
2022-09-10T16:21:37.768Z,44.06
2022-09-10T16:24:06.713Z,43.84
2022-09-10T16:26:36.702Z,43.81
2022-09-10T16:29:12.977Z,44.61
2022-09-10T16:31:40.523Z,44.79
2022-09-10T16:34:11.566Z,44.54
2022-09-10T16:36:40.029Z,44.92
2022-09-10T16:39:14.088Z,45.08
2022-09-10T16:41:44.514Z,45.09
2022-09-10T16:44:14.801Z,45.88
2022-09-10T16:46:42.872Z,46.10
2022-09-10T16:49:14.459Z,46.49
2022-09-10T16:51:43.395Z,45.73
2022-09-10T16:54:11.668Z,46.40
2022-09-10T16:56:46.058Z,46.71
2022-09-10T16:59:18.642Z,46.90
2022-09-10T17:01:48.157Z,47.33
2022-09-10T17:04:26.044Z,47.02
2022-09-10T17:06:58.337Z,47.45
2022-09-10T17:09:26.248Z,47.38
2022-09-10T17:11:54.076Z,47.57
2022-09-10T17:14:21.305Z,47.94
2022-09-10T17:16:48.884Z,47.68
2022-09-10T17:19:19.578Z,47.58
2022-09-10T17:21:51.431Z,47.89
2022-09-10T17:24:22.634Z,48.48
2022-09-10T17:26:52.099Z,48.11
2022-09-10T17:29:23.377Z,48.41
2022-09-10T17:31:57.592Z,48.96
2022-09-10T17:34:26.722Z,49.04
2022-09-10T17:36:54.533Z,49.45
2022-09-10T17:39:21.701Z,49.77
2022-09-10T17:41:48.895Z,49.56
2022-09-10T17:44:16.155Z,50.19
2022-09-10T17:46:43.197Z,49.99
2022-09-10T17:49:14.339Z,50.06
2022-09-10T17:51:42.137Z,50.50
2022-09-10T17:54:09.585Z,50.62
2022-09-10T17:56:38.190Z,50.65
2022-09-10T17:59:06.194Z,50.45
2022-09-10T18:01:40.479Z,50.46
2022-09-10T18:04:12.706Z,50.34
2022-09-10T18:06:40.986Z,51.00
2022-09-10T18:09:08.705Z,50.91
2022-09-10T18:11:38.921Z,51.02
2022-09-10T18:14:07.643Z,51.42
2022-09-10T18:16:36.794Z,51.21
2022-09-10T18:19:16.004Z,51.35
2022-09-10T18:21:45.210Z,51.29
2022-09-10T18:24:23.889Z,51.73
2022-09-10T18:26:54.084Z,51.71
2022-09-10T18:29:23.768Z,52.13
2022-09-10T18:32:01.062Z,51.82
2022-09-10T18:34:31.156Z,52.44
2022-09-10T18:37:01.225Z,52.31
2022-09-10T18:39:31.079Z,52.82
2022-09-10T18:42:01.196Z,52.60
2022-09-10T18:44:31.149Z,52.45
2022-09-10T18:46:58.521Z,52.88
2022-09-10T18:49:26.927Z,53.20
2022-09-10T18:51:55.921Z,52.64
2022-09-10T18:54:24.484Z,52.79
2022-09-10T18:56:53.432Z,53.49
2022-09-10T18:59:23.636Z,53.52
2022-09-10T19:01:53.250Z,53.35
2022-09-10T19:04:23.934Z,53.40
2022-09-10T19:06:52.392Z,53.86
2022-09-10T19:09:22.172Z,53.84
2022-09-10T19:11:50.737Z,53.83
2022-09-10T19:14:23.688Z,53.48
2022-09-10T19:16:51.360Z,53.71
2022-09-10T19:19:24.386Z,53.74
2022-09-10T19:21:53.497Z,53.96
2022-09-10T19:24:32.826Z,54.04
2022-09-10T19:27:08.417Z,54.23
2022-09-10T19:29:35.636Z,54.61
2022-09-10T19:32:03.049Z,54.26
2022-09-10T19:34:30.515Z,54.21
2022-09-10T19:36:57.504Z,54.06
2022-09-10T19:39:24.746Z,54.38
2022-09-10T19:41:51.838Z,54.44
2022-09-10T19:44:18.937Z,53.95
2022-09-10T19:46:45.942Z,54.45
2022-09-10T19:49:13.136Z,53.99
2022-09-10T19:51:41.796Z,53.95
2022-09-10T19:54:10.340Z,54.24
2022-09-10T19:56:41.324Z,54.25
2022-09-10T19:59:09.990Z,54.35
2022-09-10T20:01:42.172Z,54.28
2022-09-10T20:04:11.595Z,54.48
2022-09-10T20:06:40.084Z,54.25
2022-09-10T20:09:08.707Z,54.31
2022-09-10T20:11:36.738Z,54.69
2022-09-10T20:14:08.143Z,54.47
2022-09-10T20:16:43.379Z,55.02
2022-09-10T20:19:13.317Z,54.83
2022-09-10T20:21:40.648Z,54.74
2022-09-10T20:24:08.273Z,55.33
2022-09-10T20:26:41.302Z,55.31
2022-09-10T20:29:12.686Z,54.92
2022-09-10T20:31:41.402Z,55.01
2022-09-10T20:34:12.264Z,54.81
2022-09-10T20:36:42.393Z,55.04
2022-09-10T20:39:11.392Z,55.14
2022-09-10T20:41:40.249Z,55.75
2022-09-10T20:44:08.399Z,55.14
2022-09-10T20:46:35.871Z,55.19
2022-09-10T20:49:03.396Z,55.14
2022-09-10T20:51:34.349Z,55.28
2022-09-10T20:54:02.846Z,54.97
2022-09-10T20:56:29.893Z,54.99
2022-09-10T20:58:57.617Z,55.29
2022-09-10T21:01:26.525Z,55.27
2022-09-10T21:03:57.270Z,55.55
2022-09-10T21:06:26.898Z,55.68
2022-09-10T21:08:57.106Z,56.03
2022-09-10T21:11:27.179Z,55.78
2022-09-10T21:13:56.194Z,55.70
2022-09-10T21:16:28.442Z,56.22
2022-09-10T21:19:01.452Z,56.01
2022-09-10T21:21:31.397Z,55.68
2022-09-10T21:24:00.895Z,55.94
2022-09-10T21:26:33.737Z,56.37
2022-09-10T21:29:02.530Z,56.08
2022-09-10T21:31:30.763Z,56.18
2022-09-10T21:34:02.699Z,56.26
2022-09-10T21:36:31.793Z,56.28
2022-09-10T21:39:01.652Z,56.10
2022-09-10T21:41:37.551Z,56.35
2022-09-10T21:44:08.557Z,56.54
2022-09-10T21:46:36.377Z,57.18
2022-09-10T21:49:03.657Z,56.74
2022-09-10T21:51:30.740Z,56.78
2022-09-10T21:53:59.447Z,57.21
2022-09-10T21:56:29.673Z,57.40
2022-09-10T21:58:59.903Z,57.58
2022-09-10T22:01:29.833Z,57.61
2022-09-10T22:04:00.324Z,57.60
2022-09-10T22:06:30.047Z,57.65
2022-09-10T22:09:02.711Z,57.79
2022-09-10T22:11:32.792Z,57.83
2022-09-10T22:14:06.625Z,57.70
2022-09-10T22:16:35.553Z,57.99
2022-09-10T22:19:08.171Z,58.30
2022-09-10T22:21:38.591Z,58.27
2022-09-10T22:24:06.443Z,57.77
2022-09-10T22:26:34.468Z,57.93
2022-09-10T22:29:03.340Z,57.71
2022-09-10T22:31:32.970Z,57.94
2022-09-10T22:34:06.279Z,58.23
2022-09-10T22:36:35.929Z,57.61
2022-09-10T22:39:02.829Z,58.22
2022-09-10T22:41:31.901Z,57.96
2022-09-10T22:43:59.027Z,58.03
2022-09-10T22:46:26.759Z,58.23
2022-09-10T22:48:54.417Z,58.64
2022-09-10T22:51:23.673Z,57.87
2022-09-10T22:53:52.623Z,58.02
2022-09-10T22:56:22.292Z,57.79
2022-09-10T22:58:52.709Z,58.33
2022-09-10T23:01:22.867Z,58.47
2022-09-10T23:03:50.732Z,58.51
2022-09-10T23:06:22.286Z,58.83
2022-09-10T23:08:54.923Z,58.83
2022-09-10T23:11:26.450Z,58.60
2022-09-10T23:13:59.286Z,58.85
2022-09-10T23:16:35.028Z,58.37
2022-09-10T23:19:05.060Z,58.48
2022-09-10T23:21:34.404Z,58.39
2022-09-10T23:24:03.810Z,58.77
2022-09-10T23:26:30.901Z,59.07
2022-09-10T23:28:57.790Z,59.13
2022-09-10T23:31:27.989Z,58.57
2022-09-10T23:33:58.291Z,58.84
2022-09-10T23:36:31.426Z,58.43
2022-09-10T23:38:59.046Z,58.95
2022-09-10T23:41:26.805Z,58.92
2022-09-10T23:43:54.297Z,59.09
2022-09-10T23:46:21.772Z,59.07
2022-09-10T23:48:49.517Z,58.77
2022-09-10T23:51:19.289Z,59.04
2022-09-10T23:53:47.124Z,59.24
2022-09-10T23:56:20.275Z,58.61
2022-09-10T23:58:47.864Z,58.75
